createdAt,value
2016-11-23T14:56:09.013Z,20.56
2016-11-23T14:56:41.326Z,20.56
2016-11-23T14:57:13.637Z,20.49
2016-11-23T14:57:45.965Z,20.51
2016-11-23T14:58:18.289Z,20.49
2016-11-23T14:58:50.675Z,20.48
2016-11-23T14:59:22.986Z,20.48
2016-11-23T14:59:55.299Z,20.46
2016-11-23T15:00:27.615Z,20.46
2016-11-23T15:00:59.959Z,20.41
2016-11-23T15:01:32.284Z,20.38
2016-11-23T15:02:04.586Z,20.38
2016-11-23T15:02:36.912Z,20.49
2016-11-23T15:03:10.056Z,20.44
2016-11-23T15:03:42.358Z,20.35
2016-11-23T15:04:14.664Z,20.41
2016-11-23T15:04:46.977Z,20.44
2016-11-23T15:05:19.304Z,20.37
2016-11-23T15:05:51.674Z,20.37
2016-11-23T15:06:24.900Z,20.4
2016-11-23T15:06:57.235Z,20.25
2016-11-23T15:07:29.556Z,20.32
2016-11-23T15:08:01.872Z,20.26
2016-11-23T15:08:34.804Z,20.29
2016-11-23T15:09:07.242Z,20.22
2016-11-23T15:09:39.562Z,20.22
2016-11-23T15:10:11.866Z,20.23
2016-11-23T15:10:44.185Z,20.26
2016-11-23T15:11:16.671Z,20.23
2016-11-23T15:11:49.767Z,20.32
2016-11-23T15:12:22.827Z,20.32
2016-11-23T15:12:55.231Z,20.29
2016-11-23T15:13:27.548Z,20.22
2016-11-23T15:13:59.871Z,20.26
2016-11-23T15:14:32.713Z,20.25
2016-11-23T15:15:05.075Z,20.32
2016-11-23T15:15:37.423Z,20.18
2016-11-23T15:16:09.765Z,20.2
2016-11-23T15:16:42.060Z,20.18
2016-11-23T15:17:14.381Z,20.18
2016-11-23T15:17:46.691Z,20.12
2016-11-23T15:18:19.654Z,20.19
2016-11-23T15:18:51.972Z,20.16
2016-11-23T15:19:24.285Z,20.08
2016-11-23T15:19:57.766Z,20.22
2016-11-23T15:20:30.353Z,20.15
2016-11-23T15:21:02.669Z,20.15
2016-11-23T15:21:34.980Z,20.1
2016-11-23T15:22:07.295Z,20.15
2016-11-23T15:22:39.625Z,20.16
2016-11-23T15:23:12.673Z,20.11
2016-11-23T15:23:45.004Z,20.12
2016-11-23T15:24:17.428Z,20.11
2016-11-23T15:24:51.229Z,20.08
2016-11-23T15:25:23.544Z,20.04
2016-11-23T15:25:58.179Z,20.15
2016-11-23T15:26:30.478Z,20.02
2016-11-23T15:27:02.774Z,20.08
2016-11-23T15:27:35.085Z,20.04
2016-11-23T15:28:08.252Z,20.07
2016-11-23T15:28:40.576Z,20.04
2016-11-23T15:29:12.884Z,20.07
2016-11-23T15:29:45.225Z,20.02
2016-11-23T15:30:17.555Z,20
2016-11-23T15:30:49.905Z,20.01
2016-11-23T15:31:22.214Z,20.01
2016-11-23T15:31:54.542Z,19.89
2016-11-23T15:32:26.861Z,19.93
2016-11-23T15:32:59.175Z,19.95
2016-11-23T15:33:32.332Z,19.9
2016-11-23T15:34:10.327Z,20.01
2016-11-23T15:34:46.283Z,19.95
2016-11-23T15:35:18.616Z,19.9
2016-11-23T15:35:51.951Z,19.87
2016-11-23T15:36:24.270Z,19.9
2016-11-23T15:36:56.597Z,19.85
2016-11-23T15:37:28.951Z,19.92
2016-11-23T15:38:01.248Z,19.85
2016-11-23T15:38:35.279Z,19.85
2016-11-23T15:39:07.892Z,19.78
2016-11-23T15:39:40.233Z,19.89
2016-11-23T15:40:12.565Z,19.86
2016-11-23T15:40:44.888Z,19.87
2016-11-23T15:41:17.226Z,19.85
2016-11-23T15:41:49.550Z,19.92
2016-11-23T15:42:21.869Z,19.92
2016-11-23T15:42:54.190Z,19.86
2016-11-23T15:43:26.515Z,19.78
2016-11-23T15:43:58.860Z,19.79
2016-11-23T15:44:31.176Z,19.79
2016-11-23T15:45:03.480Z,19.82
2016-11-23T15:45:35.791Z,19.82
2016-11-23T15:46:08.107Z,19.8
2016-11-23T15:46:41.236Z,19.72
2016-11-23T15:47:13.548Z,19.78
2016-11-23T15:47:45.870Z,19.85
2016-11-23T15:48:18.188Z,19.78
2016-11-23T15:48:50.509Z,19.78
2016-11-23T15:49:22.814Z,19.78
2016-11-23T15:49:55.146Z,19.78
2016-11-23T15:50:27.476Z,19.71
2016-11-23T15:50:59.790Z,19.67
2016-11-23T15:51:32.119Z,19.64
2016-11-23T15:52:04.480Z,19.72
2016-11-23T15:52:36.799Z,19.75
2016-11-23T15:53:09.115Z,19.72
2016-11-23T15:53:41.415Z,19.68
2016-11-23T15:54:13.740Z,19.78
2016-11-23T15:54:46.063Z,19.75
2016-11-23T15:55:18.386Z,19.68
2016-11-23T15:55:50.705Z,19.63
2016-11-23T15:56:23.017Z,19.72
2016-11-23T15:56:55.331Z,19.68
2016-11-23T15:57:27.658Z,19.63
2016-11-23T15:58:00.008Z,19.63
2016-11-23T15:58:32.331Z,19.68
2016-11-23T15:59:04.694Z,19.7
2016-11-23T15:59:37.008Z,19.65
2016-11-23T16:00:09.337Z,19.65
2016-11-23T16:00:43.327Z,19.63
2016-11-23T16:01:19.713Z,19.64
2016-11-23T16:01:52.044Z,19.64
2016-11-23T16:02:24.368Z,19.61
2016-11-23T16:02:56.734Z,19.63
2016-11-23T16:03:29.050Z,19.6
2016-11-23T16:04:01.364Z,19.61
2016-11-23T16:04:33.700Z,19.57
2016-11-23T16:05:06.023Z,19.61
2016-11-23T16:05:38.370Z,19.61
2016-11-23T16:06:10.688Z,19.61
2016-11-23T16:06:43.036Z,19.6
2016-11-23T16:07:15.388Z,19.52
2016-11-23T16:07:47.714Z,19.55
2016-11-23T16:08:20.068Z,19.5
2016-11-23T16:08:52.403Z,19.55
2016-11-23T16:09:24.729Z,19.63
2016-11-23T16:09:57.038Z,19.52
2016-11-23T16:10:29.352Z,19.49
2016-11-23T16:11:01.664Z,19.5
2016-11-23T16:11:33.989Z,19.55
2016-11-23T16:12:06.314Z,19.5
2016-11-23T16:12:38.640Z,19.56
2016-11-23T16:13:10.966Z,19.49
2016-11-23T16:13:43.286Z,19.5
2016-11-23T16:14:15.597Z,19.49
2016-11-23T16:14:47.909Z,19.64
2016-11-23T16:15:20.222Z,19.49
2016-11-23T16:15:52.545Z,19.52
2016-11-23T16:16:24.888Z,19.52
2016-11-23T16:16:57.199Z,19.55
2016-11-23T16:17:29.498Z,19.43
2016-11-23T16:18:01.841Z,19.46
2016-11-23T16:18:34.162Z,19.52
2016-11-23T16:19:06.467Z,19.52
2016-11-23T16:19:38.795Z,19.49
2016-11-23T16:20:11.124Z,19.49
2016-11-23T16:20:43.440Z,19.5
2016-11-23T16:21:15.758Z,19.46
2016-11-23T16:21:48.074Z,19.55
2016-11-23T16:22:20.411Z,19.38
2016-11-23T16:22:53.750Z,19.34
2016-11-23T16:23:26.084Z,19.46
2016-11-23T16:23:58.402Z,19.35
2016-11-23T16:24:30.751Z,19.45
2016-11-23T16:25:03.078Z,19.45
2016-11-23T16:25:35.395Z,19.46
2016-11-23T16:26:07.717Z,19.49
2016-11-23T16:26:40.040Z,19.47
2016-11-23T16:27:12.369Z,19.43
2016-11-23T16:27:44.691Z,19.42
2016-11-23T16:28:17.037Z,19.4
2016-11-23T16:28:49.355Z,19.46
2016-11-23T16:29:21.665Z,19.35
2016-11-23T16:29:53.969Z,19.5
2016-11-23T16:30:26.279Z,19.4
2016-11-23T16:30:58.591Z,19.45
2016-11-23T16:31:30.945Z,19.37
2016-11-23T16:32:03.257Z,19.46
2016-11-23T16:32:35.584Z,19.45
2016-11-23T16:33:07.919Z,19.38
2016-11-23T16:33:40.243Z,19.46
2016-11-23T16:34:12.578Z,19.45
2016-11-23T16:34:44.891Z,19.35
2016-11-23T16:35:17.208Z,19.38
2016-11-23T16:35:49.544Z,19.38
2016-11-23T16:36:21.852Z,19.34
2016-11-23T16:36:54.179Z,19.31
2016-11-23T16:37:26.486Z,19.35
2016-11-23T16:37:58.818Z,19.3
2016-11-23T16:38:31.145Z,19.28
2016-11-23T16:39:03.460Z,19.35
2016-11-23T16:39:35.801Z,19.28
2016-11-23T16:40:08.128Z,19.31
2016-11-23T16:40:40.480Z,19.3
2016-11-23T16:41:12.792Z,19.27
2016-11-23T16:41:45.115Z,19.27
2016-11-23T16:42:17.443Z,19.3
2016-11-23T16:42:49.767Z,19.35
2016-11-23T16:43:22.101Z,19.37
2016-11-23T16:43:54.417Z,19.3
2016-11-23T16:44:26.780Z,19.2
2016-11-23T16:44:59.099Z,19.32
2016-11-23T16:45:31.419Z,19.3
2016-11-23T16:46:03.750Z,19.3
2016-11-23T16:46:36.066Z,19.24
2016-11-23T16:47:08.387Z,19.23
2016-11-23T16:47:40.726Z,19.27
2016-11-23T16:48:13.050Z,19.27
2016-11-23T16:48:45.363Z,19.19
2016-11-23T16:49:17.688Z,19.27
2016-11-23T16:49:50.004Z,19.17
2016-11-23T16:50:22.325Z,19.17
2016-11-23T16:50:54.642Z,19.27
2016-11-23T16:51:26.969Z,19.24
2016-11-23T16:51:59.284Z,19.23
2016-11-23T16:52:31.645Z,19.25
2016-11-23T16:53:03.966Z,19.2
2016-11-23T16:53:36.290Z,19.23
2016-11-23T16:54:08.603Z,19.09
2016-11-23T16:54:40.921Z,19.23
2016-11-23T16:55:13.236Z,19.15
2016-11-23T16:55:45.543Z,19.25
2016-11-23T16:56:17.867Z,19.23
2016-11-23T16:56:50.182Z,19.24
2016-11-23T16:57:22.488Z,19.17
2016-11-23T16:57:54.817Z,19.13
2016-11-23T16:58:27.130Z,19.15
2016-11-23T16:58:59.435Z,19.19
2016-11-23T16:59:31.764Z,19.15
2016-11-23T17:00:04.079Z,19.13
2016-11-23T17:00:36.388Z,19.12
2016-11-23T17:01:08.707Z,19.09
2016-11-23T17:01:41.023Z,19.13
2016-11-23T17:02:13.348Z,19.12
2016-11-23T17:02:45.659Z,19.2
2016-11-23T17:03:17.976Z,19.19
2016-11-23T17:03:50.293Z,19.15
2016-11-23T17:04:22.613Z,19.13
2016-11-23T17:04:54.927Z,19.1
2016-11-23T17:05:27.248Z,19.09
2016-11-23T17:05:59.567Z,19.15
2016-11-23T17:06:31.878Z,19.12
2016-11-23T17:07:04.211Z,19.12
2016-11-23T17:07:36.539Z,19.16
2016-11-23T17:08:08.850Z,19.09
2016-11-23T17:08:41.137Z,19.12
2016-11-23T17:09:13.464Z,19.09
2016-11-23T17:09:45.775Z,19.15
2016-11-23T17:10:18.090Z,19.06
2016-11-23T17:10:50.390Z,19.06
2016-11-23T17:11:22.714Z,19.15
2016-11-23T17:11:55.039Z,19.06
2016-11-23T17:12:27.399Z,19.07
2016-11-23T17:12:59.705Z,19.1
2016-11-23T17:13:32.063Z,19.06
2016-11-23T17:14:04.388Z,19.12
2016-11-23T17:14:36.690Z,19.07
2016-11-23T17:15:09.001Z,19.06
2016-11-23T17:15:41.313Z,19.07
2016-11-23T17:16:13.643Z,19.07
2016-11-23T17:16:45.956Z,19.09
2016-11-23T17:17:18.287Z,19.07
2016-11-23T17:17:50.609Z,19.02
2016-11-23T17:18:22.916Z,19.02
2016-11-23T17:18:55.243Z,18.96
2016-11-23T17:19:27.555Z,18.99
2016-11-23T17:19:59.856Z,19.06
2016-11-23T17:20:32.180Z,19.02
2016-11-23T17:21:04.493Z,19.05
2016-11-23T17:21:36.825Z,19.09
2016-11-23T17:22:09.142Z,19.06
2016-11-23T17:22:41.464Z,18.96
2016-11-23T17:23:13.784Z,19.06
2016-11-23T17:23:46.109Z,19.06
2016-11-23T17:24:18.440Z,18.93
2016-11-23T17:24:50.753Z,18.96
2016-11-23T17:25:23.068Z,18.97
2016-11-23T17:25:55.427Z,18.94
2016-11-23T17:26:27.773Z,19
2016-11-23T17:27:00.114Z,18.97
2016-11-23T17:27:32.470Z,18.94
2016-11-23T17:28:04.787Z,19.07
2016-11-23T17:28:37.108Z,19
2016-11-23T17:29:09.426Z,18.96
2016-11-23T17:29:41.777Z,18.99
2016-11-23T17:30:14.087Z,18.97
2016-11-23T17:30:46.397Z,18.94
2016-11-23T17:31:18.719Z,18.99
2016-11-23T17:31:51.026Z,18.9
2016-11-23T17:32:23.349Z,18.93
2016-11-23T17:32:55.678Z,18.94
2016-11-23T17:33:28.034Z,18.99
2016-11-23T17:34:00.347Z,18.99
2016-11-23T17:34:32.670Z,18.87
2016-11-23T17:35:04.980Z,18.9
2016-11-23T17:35:37.306Z,18.96
2016-11-23T17:36:10.280Z,18.9
2016-11-23T17:36:42.598Z,18.94
2016-11-23T17:37:14.930Z,18.97
2016-11-23T17:37:47.355Z,18.94
2016-11-23T17:38:19.671Z,18.79
2016-11-23T17:38:51.986Z,18.9
2016-11-23T17:39:24.312Z,18.89
2016-11-23T17:39:56.634Z,18.9
2016-11-23T17:40:28.972Z,18.86
2016-11-23T17:41:01.301Z,18.86
2016-11-23T17:41:33.622Z,18.86
2016-11-23T17:42:05.931Z,18.93
2016-11-23T17:42:38.227Z,18.91
2016-11-23T17:43:10.544Z,18.87
2016-11-23T17:43:42.867Z,18.89
2016-11-23T17:44:15.228Z,18.87
2016-11-23T17:44:48.740Z,18.87
2016-11-23T17:45:21.051Z,18.9
2016-11-23T17:45:53.374Z,18.86
2016-11-23T17:46:25.702Z,18.82
2016-11-23T17:46:58.061Z,18.86
2016-11-23T17:47:30.390Z,18.82
2016-11-23T17:48:02.706Z,18.81
2016-11-23T17:48:35.042Z,18.81
2016-11-23T17:49:07.361Z,18.84
2016-11-23T17:49:39.680Z,18.87
2016-11-23T17:50:12.004Z,18.82
2016-11-23T17:50:44.343Z,18.84
2016-11-23T17:51:16.654Z,18.89
2016-11-23T17:51:48.959Z,18.87
2016-11-23T17:52:21.274Z,18.78
2016-11-23T17:52:53.598Z,18.82
2016-11-23T17:53:25.925Z,18.9
2016-11-23T17:53:58.256Z,18.79
2016-11-23T17:54:30.620Z,18.75
2016-11-23T17:55:02.946Z,18.82
2016-11-23T17:55:35.266Z,18.81
2016-11-23T17:56:07.579Z,18.84
2016-11-23T17:56:39.904Z,18.81
2016-11-23T17:57:12.229Z,18.82
2016-11-23T17:57:44.539Z,18.86
2016-11-23T17:58:16.872Z,18.84
2016-11-23T17:58:49.195Z,18.84
2016-11-23T17:59:21.502Z,18.82
2016-11-23T17:59:53.830Z,18.82
2016-11-23T18:00:26.135Z,18.79
2016-11-23T18:00:58.551Z,18.76
2016-11-23T18:01:30.908Z,18.75
2016-11-23T18:02:03.222Z,18.81
2016-11-23T18:02:35.539Z,18.68
2016-11-23T18:03:07.891Z,18.71
2016-11-23T18:03:40.210Z,18.82
2016-11-23T18:04:12.533Z,18.84
2016-11-23T18:04:44.858Z,18.81
2016-11-23T18:05:17.171Z,18.82
2016-11-23T18:05:49.485Z,18.82
2016-11-23T18:06:21.832Z,18.78
2016-11-23T18:06:54.140Z,18.74
2016-11-23T18:07:26.461Z,18.69
2016-11-23T18:07:58.776Z,18.69
2016-11-23T18:08:31.124Z,18.68
2016-11-23T18:09:03.446Z,18.72
2016-11-23T18:09:35.838Z,18.75
2016-11-23T18:10:08.172Z,18.66
2016-11-23T18:10:40.499Z,18.72
2016-11-23T18:11:12.821Z,18.61
2016-11-23T18:11:45.135Z,18.68
2016-11-23T18:12:17.457Z,18.66
2016-11-23T18:12:49.786Z,18.69
2016-11-23T18:13:22.137Z,18.66
2016-11-23T18:13:54.458Z,18.68
2016-11-23T18:14:26.763Z,18.65
2016-11-23T18:14:59.089Z,18.68
2016-11-23T18:15:31.421Z,18.71
2016-11-23T18:16:03.737Z,18.66
2016-11-23T18:16:36.075Z,18.71
2016-11-23T18:17:08.396Z,18.68
2016-11-23T18:17:40.708Z,18.71
2016-11-23T18:18:13.044Z,18.72
2016-11-23T18:18:45.358Z,18.65
2016-11-23T18:19:18.168Z,18.71
2016-11-23T18:19:50.502Z,18.68
2016-11-23T18:20:22.834Z,18.72
2016-11-23T18:20:55.146Z,18.6
2016-11-23T18:21:27.468Z,18.72
2016-11-23T18:21:59.774Z,18.71
2016-11-23T18:22:32.436Z,18.69
2016-11-23T18:23:04.743Z,18.72
2016-11-23T18:23:37.051Z,18.71
2016-11-23T18:24:09.374Z,18.63
2016-11-23T18:24:41.722Z,18.68
2016-11-23T18:25:14.039Z,18.65
2016-11-23T18:25:46.342Z,18.63
2016-11-23T18:26:18.644Z,18.65
2016-11-23T18:26:50.952Z,18.65
2016-11-23T18:27:23.309Z,18.66
2016-11-23T18:27:55.620Z,18.66
2016-11-23T18:28:27.941Z,18.68
2016-11-23T18:29:01.873Z,18.6
2016-11-23T18:29:42.345Z,18.63
2016-11-23T18:30:20.351Z,18.65
2016-11-23T18:30:52.887Z,18.61
2016-11-23T18:31:25.798Z,18.59
2016-11-23T18:31:58.127Z,18.65
2016-11-23T18:32:30.444Z,18.68
2016-11-23T18:33:02.758Z,18.61
2016-11-23T18:33:35.503Z,18.6
2016-11-23T18:34:07.812Z,18.57
2016-11-23T18:34:40.154Z,18.63
2016-11-23T18:35:12.475Z,18.63
2016-11-23T18:35:44.825Z,18.61
2016-11-23T18:36:17.137Z,18.69
2016-11-23T18:36:49.452Z,18.69
2016-11-23T18:37:21.783Z,18.57
2016-11-23T18:37:54.122Z,18.57
2016-11-23T18:38:26.476Z,18.6
2016-11-23T18:38:58.800Z,18.57
2016-11-23T18:39:31.133Z,18.66
2016-11-23T18:40:03.424Z,18.61
2016-11-23T18:40:35.747Z,18.59
2016-11-23T18:41:08.069Z,18.53
2016-11-23T18:41:40.419Z,18.56
2016-11-23T18:42:12.720Z,18.56
2016-11-23T18:42:45.044Z,18.56
2016-11-23T18:43:19.361Z,18.56
2016-11-23T18:43:51.724Z,18.57
2016-11-23T18:44:24.235Z,18.57
2016-11-23T18:44:56.560Z,18.53
2016-11-23T18:45:28.872Z,18.59
2016-11-23T18:46:01.194Z,18.5
2016-11-23T18:46:33.546Z,18.51
2016-11-23T18:47:08.148Z,18.54
2016-11-23T18:47:40.463Z,18.5
2016-11-23T18:48:12.797Z,18.59
2016-11-23T18:48:45.130Z,18.56
2016-11-23T18:49:17.445Z,18.59
2016-11-23T18:49:49.771Z,18.63
2016-11-23T18:50:22.097Z,18.56
2016-11-23T18:50:54.409Z,18.49
2016-11-23T18:51:26.724Z,18.45
2016-11-23T18:51:59.042Z,18.5
2016-11-23T18:52:31.351Z,18.54
2016-11-23T18:53:03.679Z,18.54
2016-11-23T18:53:35.978Z,18.53
2016-11-23T18:54:08.295Z,18.53
2016-11-23T18:54:40.626Z,18.53
2016-11-23T18:55:12.946Z,18.54
2016-11-23T18:55:45.309Z,18.54
2016-11-23T18:56:17.624Z,18.56
2016-11-23T18:56:49.955Z,18.54
2016-11-23T18:57:22.262Z,18.47
2016-11-23T18:57:54.581Z,18.51
2016-11-23T18:58:26.911Z,18.53
2016-11-23T18:58:59.272Z,18.51
2016-11-23T18:59:31.602Z,18.53
2016-11-23T19:00:03.960Z,18.44
2016-11-23T19:00:36.285Z,18.5
2016-11-23T19:01:08.616Z,18.53
2016-11-23T19:01:40.924Z,18.51
2016-11-23T19:02:13.263Z,18.51
2016-11-23T19:02:45.607Z,18.47
2016-11-23T19:03:17.942Z,18.5
2016-11-23T19:03:50.267Z,18.51
2016-11-23T19:04:22.600Z,18.45
2016-11-23T19:04:54.918Z,18.44
2016-11-23T19:05:27.236Z,18.49
2016-11-23T19:05:59.558Z,18.51
2016-11-23T19:06:31.863Z,18.45
2016-11-23T19:07:04.196Z,18.42
2016-11-23T19:07:36.515Z,18.49
2016-11-23T19:08:08.823Z,18.47
2016-11-23T19:08:41.141Z,18.45
2016-11-23T19:09:13.460Z,18.45
2016-11-23T19:09:45.783Z,18.5
2016-11-23T19:10:18.107Z,18.47
2016-11-23T19:10:50.405Z,18.47
2016-11-23T19:11:22.720Z,18.49
2016-11-23T19:11:55.036Z,18.49
2016-11-23T19:12:27.353Z,18.44
2016-11-23T19:12:59.692Z,18.45
2016-11-23T19:13:32.009Z,18.45
2016-11-23T19:14:04.340Z,18.44
2016-11-23T19:14:36.652Z,18.47
2016-11-23T19:15:08.984Z,18.45
2016-11-23T19:15:41.318Z,18.47
2016-11-23T19:16:13.674Z,18.42
2016-11-23T19:16:45.996Z,18.47
2016-11-23T19:17:18.318Z,18.45
2016-11-23T19:17:50.652Z,18.44
2016-11-23T19:18:22.960Z,18.47
2016-11-23T19:18:55.278Z,18.41
2016-11-23T19:19:27.608Z,18.45
2016-11-23T19:19:59.961Z,18.47
2016-11-23T19:20:32.303Z,18.45
2016-11-23T19:21:04.638Z,18.38
2016-11-23T19:21:37.882Z,18.42
2016-11-23T19:22:10.207Z,18.44
2016-11-23T19:22:42.520Z,18.44
2016-11-23T19:23:14.856Z,18.41
2016-11-23T19:23:47.190Z,18.41
2016-11-23T19:24:19.495Z,18.41
2016-11-23T19:24:51.817Z,18.39
2016-11-23T19:25:24.129Z,18.41
2016-11-23T19:25:56.454Z,18.41
2016-11-23T19:26:28.770Z,18.39
2016-11-23T19:27:01.074Z,18.45
2016-11-23T19:27:33.398Z,18.36
2016-11-23T19:28:05.732Z,18.42
2016-11-23T19:28:38.053Z,18.38
2016-11-23T19:29:10.367Z,18.39
2016-11-23T19:29:42.730Z,18.38
2016-11-23T19:30:15.050Z,18.39
2016-11-23T19:30:47.357Z,18.36
2016-11-23T19:31:19.648Z,18.38
2016-11-23T19:31:51.987Z,18.42
2016-11-23T19:32:24.323Z,18.42
2016-11-23T19:32:56.642Z,18.36
2016-11-23T19:33:28.968Z,18.38
2016-11-23T19:34:01.288Z,18.41
2016-11-23T19:34:33.697Z,18.38
2016-11-23T19:35:06.025Z,18.36
2016-11-23T19:35:38.357Z,18.36
2016-11-23T19:36:10.679Z,18.39
2016-11-23T19:36:43.012Z,18.39
2016-11-23T19:37:15.342Z,18.36
2016-11-23T19:37:47.642Z,18.38
2016-11-23T19:38:19.954Z,18.38
2016-11-23T19:38:53.329Z,18.42
2016-11-23T19:39:25.643Z,18.41
2016-11-23T19:39:57.972Z,18.34
2016-11-23T19:40:30.301Z,18.39
2016-11-23T19:41:02.630Z,18.41
2016-11-23T19:41:34.948Z,18.35
2016-11-23T19:42:07.255Z,18.41
2016-11-23T19:42:39.551Z,18.5
2016-11-23T19:43:11.872Z,18.34
2016-11-23T19:43:44.203Z,18.36
2016-11-23T19:44:16.536Z,18.29
2016-11-23T19:44:48.874Z,18.35
2016-11-23T19:45:21.197Z,18.44
2016-11-23T19:45:53.519Z,18.39
2016-11-23T19:46:25.849Z,18.39
2016-11-23T19:46:58.176Z,18.35
2016-11-23T19:47:30.496Z,18.31
2016-11-23T19:48:02.841Z,18.38
2016-11-23T19:48:35.173Z,18.36
2016-11-23T19:49:07.493Z,18.29
2016-11-23T19:49:39.808Z,18.42
2016-11-23T19:50:12.126Z,18.41
2016-11-23T19:50:44.458Z,18.39
2016-11-23T19:51:16.798Z,18.34
2016-11-23T19:51:49.146Z,18.42
2016-11-23T19:52:21.464Z,18.38
2016-11-23T19:52:53.780Z,18.38
2016-11-23T19:53:26.104Z,18.42
2016-11-23T19:53:58.460Z,18.35
2016-11-23T19:54:30.778Z,18.31
2016-11-23T19:55:03.096Z,18.39
2016-11-23T19:55:35.401Z,18.35
2016-11-23T19:56:07.739Z,18.35
2016-11-23T19:56:40.073Z,18.39
2016-11-23T19:57:12.386Z,18.31
2016-11-23T19:57:44.686Z,18.31
2016-11-23T19:58:17.005Z,18.39
2016-11-23T19:58:49.312Z,18.34
2016-11-23T19:59:21.624Z,18.36
2016-11-23T19:59:53.947Z,18.32
2016-11-23T20:00:26.298Z,18.35
2016-11-23T20:00:58.586Z,18.23
2016-11-23T20:01:30.898Z,18.42
2016-11-23T20:02:03.219Z,18.44
2016-11-23T20:02:35.542Z,18.41
2016-11-23T20:03:07.858Z,18.34
2016-11-23T20:03:40.183Z,18.32
2016-11-23T20:04:12.518Z,18.32
2016-11-23T20:04:44.836Z,18.38
2016-11-23T20:05:17.148Z,18.34
2016-11-23T20:05:49.456Z,18.39
2016-11-23T20:06:21.777Z,18.35
2016-11-23T20:06:54.109Z,18.41
2016-11-23T20:07:26.427Z,18.34
2016-11-23T20:07:58.741Z,18.35
2016-11-23T20:08:31.060Z,18.31
2016-11-23T20:09:03.403Z,18.38
2016-11-23T20:09:35.730Z,18.31
2016-11-23T20:10:08.046Z,18.39
2016-11-23T20:10:40.363Z,18.45
2016-11-23T20:11:12.680Z,18.34
2016-11-23T20:11:44.982Z,18.26
2016-11-23T20:12:17.312Z,18.35
2016-11-23T20:12:49.680Z,18.39
2016-11-23T20:13:22.015Z,18.32
2016-11-23T20:13:54.353Z,18.35
2016-11-23T20:14:26.742Z,18.24
2016-11-23T20:14:59.075Z,18.32
2016-11-23T20:15:31.531Z,18.29
2016-11-23T20:16:03.893Z,18.39
2016-11-23T20:16:36.253Z,18.47
2016-11-23T20:17:08.605Z,18.44
2016-11-23T20:17:40.980Z,18.24
2016-11-23T20:18:13.279Z,18.38
2016-11-23T20:18:45.599Z,18.34
2016-11-23T20:19:17.985Z,18.23
2016-11-23T20:19:50.387Z,18.36
2016-11-23T20:20:22.734Z,18.41
2016-11-23T20:20:55.095Z,18.38
2016-11-23T20:21:27.441Z,18.29
2016-11-23T20:21:59.770Z,18.32
2016-11-23T20:22:32.124Z,18.32
2016-11-23T20:23:04.441Z,18.32
2016-11-23T20:23:36.814Z,18.29
2016-11-23T20:24:09.152Z,18.36
2016-11-23T20:24:41.529Z,18.32
2016-11-23T20:25:13.925Z,18.35
2016-11-23T20:25:46.238Z,18.35
2016-11-23T20:26:18.579Z,18.29
2016-11-23T20:26:50.915Z,18.36
2016-11-23T20:27:23.260Z,18.34
2016-11-23T20:27:55.574Z,18.27
2016-11-23T20:28:27.923Z,18.31
2016-11-23T20:29:00.282Z,18.36
2016-11-23T20:29:32.616Z,18.29
2016-11-23T20:30:04.954Z,18.31
2016-11-23T20:30:37.313Z,18.34
2016-11-23T20:31:09.616Z,18.29
2016-11-23T20:31:41.958Z,18.27
2016-11-23T20:32:14.323Z,18.29
2016-11-23T20:32:46.639Z,18.34
2016-11-23T20:33:18.962Z,18.31
2016-11-23T20:33:51.288Z,18.29
2016-11-23T20:34:23.601Z,18.34
2016-11-23T20:34:56.035Z,18.31
2016-11-23T20:35:28.344Z,18.29
2016-11-23T20:36:00.678Z,18.34
2016-11-23T20:36:32.998Z,18.31
2016-11-23T20:37:05.341Z,18.31
2016-11-23T20:37:37.821Z,18.24
2016-11-23T20:38:10.171Z,18.34
2016-11-23T20:38:42.745Z,18.34
2016-11-23T20:39:15.619Z,18.31
2016-11-23T20:39:47.955Z,18.27
2016-11-23T20:40:20.281Z,18.17
2016-11-23T20:40:52.616Z,18.26
2016-11-23T20:41:24.931Z,18.2
2016-11-23T20:41:57.261Z,18.19
2016-11-23T20:42:29.556Z,18.23
2016-11-23T20:43:01.911Z,18.19
2016-11-23T20:43:35.359Z,18.16
2016-11-23T20:44:07.677Z,18.19
2016-11-23T20:44:39.989Z,18.16
2016-11-23T20:45:12.319Z,18.26
2016-11-23T20:45:44.650Z,18.21
2016-11-23T20:46:16.974Z,18.17
2016-11-23T20:46:49.311Z,18.24
2016-11-23T20:47:21.640Z,18.21
2016-11-23T20:47:53.942Z,18.21
2016-11-23T20:48:26.267Z,18.16
2016-11-23T20:48:58.599Z,18.2
2016-11-23T20:49:30.967Z,18.14
2016-11-23T20:50:03.455Z,18.14
2016-11-23T20:50:35.797Z,18.14
2016-11-23T20:51:08.124Z,18.2
2016-11-23T20:51:40.460Z,18.16
2016-11-23T20:52:12.810Z,18.24
2016-11-23T20:52:45.153Z,18.16
2016-11-23T20:53:17.518Z,18.2
2016-11-23T20:53:49.849Z,18.2
2016-11-23T20:54:22.182Z,18.16
2016-11-23T20:54:54.517Z,18.17
2016-11-23T20:55:26.856Z,18.19
2016-11-23T20:55:59.193Z,18.2
2016-11-23T20:56:31.520Z,18.2
2016-11-23T20:57:03.858Z,18.17
2016-11-23T20:57:36.237Z,18.21
2016-11-23T20:58:08.593Z,18.19
2016-11-23T20:58:40.946Z,18.17
2016-11-23T20:59:13.284Z,18.17
2016-11-23T20:59:45.619Z,18.24
2016-11-23T21:00:17.958Z,18.19
2016-11-23T21:00:50.289Z,18.16
2016-11-23T21:01:22.620Z,18.21
2016-11-23T21:01:54.957Z,18.17
2016-11-23T21:02:27.294Z,18.23
2016-11-23T21:02:59.641Z,18.13
2016-11-23T21:03:31.967Z,18.16
2016-11-23T21:04:04.296Z,18.21
2016-11-23T21:04:36.694Z,18.24
2016-11-23T21:05:09.007Z,18.16
2016-11-23T21:05:41.352Z,18.16
2016-11-23T21:06:13.712Z,18.2
2016-11-23T21:06:46.032Z,18.16
2016-11-23T21:07:18.376Z,18.11
2016-11-23T21:07:50.722Z,18.14
2016-11-23T21:08:23.042Z,18.2
2016-11-23T21:08:55.353Z,18.17
2016-11-23T21:09:27.677Z,18.17
2016-11-23T21:10:00.013Z,18.2
2016-11-23T21:10:32.346Z,18.16
2016-11-23T21:11:04.678Z,18.14
2016-11-23T21:11:37.001Z,18.17
2016-11-23T21:12:09.322Z,18.14
2016-11-23T21:12:41.649Z,18.08
2016-11-23T21:13:13.967Z,18.13
2016-11-23T21:13:46.280Z,18.08
2016-11-23T21:14:18.587Z,18.1
2016-11-23T21:14:50.893Z,18.2
2016-11-23T21:15:23.226Z,18.11
2016-11-23T21:15:55.528Z,18.17
2016-11-23T21:16:27.840Z,18.19
2016-11-23T21:17:00.161Z,18.19
2016-11-23T21:17:32.496Z,18.13
2016-11-23T21:18:04.799Z,18.14
2016-11-23T21:18:37.105Z,18.03
2016-11-23T21:19:09.441Z,18.13
2016-11-23T21:19:41.774Z,18.02
2016-11-23T21:20:14.091Z,18.05
2016-11-23T21:20:46.424Z,18.17
2016-11-23T21:21:18.733Z,18.16
2016-11-23T21:21:51.037Z,18.01
2016-11-23T21:22:23.367Z,18.02
2016-11-23T21:22:55.683Z,18.01
2016-11-23T21:23:27.997Z,18.19
2016-11-23T21:24:00.325Z,18.16
2016-11-23T21:24:32.663Z,18.03
2016-11-23T21:25:04.981Z,18.02
2016-11-23T21:25:37.291Z,18.1
2016-11-23T21:26:09.617Z,18.17
2016-11-23T21:26:41.935Z,18.06
2016-11-23T21:27:14.247Z,18.02
2016-11-23T21:27:46.577Z,18.13
2016-11-23T21:28:18.904Z,18.08
2016-11-23T21:28:51.223Z,18.11
2016-11-23T21:29:23.524Z,18.06
2016-11-23T21:29:55.818Z,18.03
2016-11-23T21:30:28.114Z,18.06
2016-11-23T21:31:00.430Z,18.11
2016-11-23T21:31:32.752Z,18.14
2016-11-23T21:32:05.062Z,18.02
2016-11-23T21:32:37.376Z,18.08
2016-11-23T21:33:09.735Z,18.1
2016-11-23T21:33:42.065Z,18.05
2016-11-23T21:34:14.376Z,18.08
2016-11-23T21:34:46.697Z,18.1
2016-11-23T21:35:19.008Z,18.01
2016-11-23T21:35:51.331Z,18.05
2016-11-23T21:36:23.669Z,18.05
2016-11-23T21:36:55.992Z,18.06
2016-11-23T21:37:28.308Z,18.11
2016-11-23T21:38:00.638Z,18.1
2016-11-23T21:38:32.952Z,18.02
2016-11-23T21:39:05.275Z,17.98
2016-11-23T21:39:37.570Z,18.01
2016-11-23T21:40:09.904Z,18.05
2016-11-23T21:40:42.230Z,18.05
2016-11-23T21:41:14.567Z,18.02
2016-11-23T21:41:46.883Z,18.02
2016-11-23T21:42:19.203Z,18.02
2016-11-23T21:42:51.523Z,18.06
2016-11-23T21:43:23.832Z,18.02
2016-11-23T21:43:56.146Z,18.03
2016-11-23T21:44:28.463Z,17.99
2016-11-23T21:45:00.776Z,18.01
2016-11-23T21:45:33.094Z,18.05
2016-11-23T21:46:05.413Z,18.03
2016-11-23T21:46:37.788Z,18.02
2016-11-23T21:47:10.128Z,18.05
2016-11-23T21:47:42.439Z,18.05
2016-11-23T21:48:14.773Z,18.06
2016-11-23T21:48:47.125Z,18.03
2016-11-23T21:49:19.459Z,17.99
2016-11-23T21:49:51.786Z,18.01
2016-11-23T21:50:24.098Z,18.01
2016-11-23T21:50:56.426Z,17.99
2016-11-23T21:51:28.734Z,17.99
2016-11-23T21:52:01.037Z,18.01
2016-11-23T21:52:33.374Z,17.98
2016-11-23T21:53:05.670Z,18.02
2016-11-23T21:53:37.985Z,18.03
2016-11-23T21:54:10.296Z,18.03
2016-11-23T21:54:42.615Z,17.96